sensor_id;sensor_type;location;lat;lon;timestamp;P1;durP1;ratioP1;P2;durP2;ratioP2
20743;SDS011;56303;52.160;-0.428;2022-12-08T00:01:23;16.07;;;10.13;;
20743;SDS011;56303;52.160;-0.428;2022-12-08T00:03:52;13.27;;;10.47;;
20743;SDS011;56303;52.160;-0.428;2022-12-08T00:06:24;15.43;;;10.70;;
20743;SDS011;56303;52.160;-0.428;2022-12-08T00:11:54;13.17;;;11.23;;
20743;SDS011;56303;52.160;-0.428;2022-12-08T00:14:35;15.53;;;9.97;;
20743;SDS011;56303;52.160;-0.428;2022-12-08T00:17:05;15.97;;;11.80;;
20743;SDS011;56303;52.160;-0.428;2022-12-08T00:19:33;14.87;;;10.40;;
20743;SDS011;56303;52.160;-0.428;2022-12-08T00:22:00;14.13;;;9.60;;
20743;SDS011;56303;52.160;-0.428;2022-12-08T00:24:29;20.70;;;12.00;;
20743;SDS011;56303;52.160;-0.428;2022-12-08T00:26:57;14.20;;;10.77;;
20743;SDS011;56303;52.160;-0.428;2022-12-08T00:29:24;14.43;;;10.83;;
20743;SDS011;56303;52.160;-0.428;2022-12-08T00:31:51;13.00;;;10.03;;
20743;SDS011;56303;52.160;-0.428;2022-12-08T00:34:18;14.97;;;11.10;;
20743;SDS011;56303;52.160;-0.428;2022-12-08T00:36:45;12.30;;;10.07;;
20743;SDS011;56303;52.160;-0.428;2022-12-08T00:39:12;19.83;;;10.93;;
20743;SDS011;56303;52.160;-0.428;2022-12-08T00:41:40;13.23;;;11.27;;
20743;SDS011;56303;52.160;-0.428;2022-12-08T00:44:25;15.33;;;10.70;;
20743;SDS011;56303;52.160;-0.428;2022-12-08T00:46:52;16.40;;;11.00;;
20743;SDS011;56303;52.160;-0.428;2022-12-08T00:49:19;14.87;;;9.90;;
20743;SDS011;56303;52.160;-0.428;2022-12-08T00:51:46;16.13;;;10.47;;
20743;SDS011;56303;52.160;-0.428;2022-12-08T00:54:13;15.30;;;10.83;;
20743;SDS011;56303;52.160;-0.428;2022-12-08T00:56:40;14.50;;;10.17;;
20743;SDS011;56303;52.160;-0.428;2022-12-08T00:59:07;17.67;;;10.80;;
20743;SDS011;56303;52.160;-0.428;2022-12-08T01:01:35;15.40;;;10.57;;
20743;SDS011;56303;52.160;-0.428;2022-12-08T01:04:02;15.33;;;10.67;;
20743;SDS011;56303;52.160;-0.428;2022-12-08T01:06:30;12.33;;;10.53;;
20743;SDS011;56303;52.160;-0.428;2022-12-08T01:08:57;16.27;;;10.87;;
20743;SDS011;56303;52.160;-0.428;2022-12-08T01:11:24;16.00;;;10.07;;
20743;SDS011;56303;52.160;-0.428;2022-12-08T01:13:52;14.87;;;11.00;;
20743;SDS011;56303;52.160;-0.428;2022-12-08T01:16:20;12.10;;;9.87;;
20743;SDS011;56303;52.160;-0.428;2022-12-08T01:18:52;14.30;;;11.37;;
20743;SDS011;56303;52.160;-0.428;2022-12-08T01:21:19;13.23;;;10.03;;
20743;SDS011;56303;52.160;-0.428;2022-12-08T01:23:47;15.90;;;10.93;;
20743;SDS011;56303;52.160;-0.428;2022-12-08T01:26:14;16.57;;;10.37;;
20743;SDS011;56303;52.160;-0.428;2022-12-08T01:28:43;13.13;;;10.37;;
20743;SDS011;56303;52.160;-0.428;2022-12-08T01:31:14;13.87;;;10.43;;
20743;SDS011;56303;52.160;-0.428;2022-12-08T01:33:43;16.37;;;10.47;;
20743;SDS011;56303;52.160;-0.428;2022-12-08T01:36:23;13.00;;;9.67;;
20743;SDS011;56303;52.160;-0.428;2022-12-08T01:38:52;12.23;;;9.53;;
20743;SDS011;56303;52.160;-0.428;2022-12-08T01:41:20;16.50;;;10.30;;
20743;SDS011;56303;52.160;-0.428;2022-12-08T01:46:20;11.97;;;9.97;;
20743;SDS011;56303;52.160;-0.428;2022-12-08T01:48:47;13.13;;;9.47;;
20743;SDS011;56303;52.160;-0.428;2022-12-08T01:51:16;13.47;;;10.30;;
20743;SDS011;56303;52.160;-0.428;2022-12-08T01:53:44;18.07;;;11.00;;
20743;SDS011;56303;52.160;-0.428;2022-12-08T01:56:14;14.63;;;10.17;;
20743;SDS011;56303;52.160;-0.428;2022-12-08T01:58:59;14.20;;;10.53;;
20743;SDS011;56303;52.160;-0.428;2022-12-08T02:01:25;16.93;;;11.13;;
20743;SDS011;56303;52.160;-0.428;2022-12-08T02:03:56;15.63;;;10.37;;
20743;SDS011;56303;52.160;-0.428;2022-12-08T02:06:26;14.93;;;11.27;;
20743;SDS011;56303;52.160;-0.428;2022-12-08T02:08:54;13.10;;;10.33;;
20743;SDS011;56303;52.160;-0.428;2022-12-08T02:11:23;16.50;;;10.10;;
20743;SDS011;56303;52.160;-0.428;2022-12-08T02:13:49;16.17;;;10.53;;
20743;SDS011;56303;52.160;-0.428;2022-12-08T02:41:48;13.10;;;9.97;;
20743;SDS011;56303;52.160;-0.428;2022-12-08T02:44:47;16.00;;;10.50;;
20743;SDS011;56303;52.160;-0.428;2022-12-08T02:47:22;18.67;;;11.57;;
20743;SDS011;56303;52.160;-0.428;2022-12-08T02:49:50;15.53;;;10.83;;
20743;SDS011;56303;52.160;-0.428;2022-12-08T02:54:45;16.33;;;10.50;;
20743;SDS011;56303;52.160;-0.428;2022-12-08T03:00:06;13.57;;;10.80;;
20743;SDS011;56303;52.160;-0.428;2022-12-08T03:02:53;16.70;;;11.40;;
20743;SDS011;56303;52.160;-0.428;2022-12-08T03:08:28;15.67;;;10.27;;
20743;SDS011;56303;52.160;-0.428;2022-12-08T03:11:01;12.30;;;9.90;;
20743;SDS011;56303;52.160;-0.428;2022-12-08T03:13:37;11.47;;;9.57;;
20743;SDS011;56303;52.160;-0.428;2022-12-08T03:16:11;16.00;;;10.13;;
20743;SDS011;56303;52.160;-0.428;2022-12-08T03:18:44;14.27;;;11.00;;
20743;SDS011;56303;52.160;-0.428;2022-12-08T03:21:16;15.03;;;10.30;;
20743;SDS011;56303;52.160;-0.428;2022-12-08T03:23:45;12.63;;;10.07;;
20743;SDS011;56303;52.160;-0.428;2022-12-08T03:26:20;17.87;;;11.10;;
20743;SDS011;56303;52.160;-0.428;2022-12-08T03:28:50;17.03;;;11.03;;
20743;SDS011;56303;52.160;-0.428;2022-12-08T03:31:18;17.23;;;11.60;;
20743;SDS011;56303;52.160;-0.428;2022-12-08T03:33:48;14.13;;;10.77;;
20743;SDS011;56303;52.160;-0.428;2022-12-08T03:36:17;17.30;;;11.23;;
20743;SDS011;56303;52.160;-0.428;2022-12-08T03:38:45;14.70;;;10.00;;
20743;SDS011;56303;52.160;-0.428;2022-12-08T03:41:18;16.23;;;10.93;;
20743;SDS011;56303;52.160;-0.428;2022-12-08T03:43:48;12.23;;;10.57;;
20743;SDS011;56303;52.160;-0.428;2022-12-08T03:46:20;14.23;;;10.43;;
20743;SDS011;56303;52.160;-0.428;2022-12-08T03:48:47;15.03;;;10.87;;
20743;SDS011;56303;52.160;-0.428;2022-12-08T03:51:14;12.60;;;10.80;;
20743;SDS011;56303;52.160;-0.428;2022-12-08T03:53:42;16.93;;;10.37;;
20743;SDS011;56303;52.160;-0.428;2022-12-08T03:58:55;14.87;;;10.23;;
20743;SDS011;56303;52.160;-0.428;2022-12-08T04:01:22;14.73;;;11.20;;
20743;SDS011;56303;52.160;-0.428;2022-12-08T04:03:50;17.40;;;10.93;;
20743;SDS011;56303;52.160;-0.428;2022-12-08T04:06:17;15.60;;;10.20;;
20743;SDS011;56303;52.160;-0.428;2022-12-08T04:08:45;15.27;;;11.27;;
20743;SDS011;56303;52.160;-0.428;2022-12-08T04:11:11;14.13;;;10.77;;
20743;SDS011;56303;52.160;-0.428;2022-12-08T04:13:39;16.07;;;10.13;;
20743;SDS011;56303;52.160;-0.428;2022-12-08T04:16:07;21.33;;;11.60;;
20743;SDS011;56303;52.160;-0.428;2022-12-08T04:18:34;15.63;;;12.07;;
20743;SDS011;56303;52.160;-0.428;2022-12-08T04:21:02;14.33;;;11.40;;
20743;SDS011;56303;52.160;-0.428;2022-12-08T04:23:29;14.63;;;11.13;;
20743;SDS011;56303;52.160;-0.428;2022-12-08T04:25:56;15.47;;;10.97;;
20743;SDS011;56303;52.160;-0.428;2022-12-08T04:28:22;14.67;;;10.70;;
20743;SDS011;56303;52.160;-0.428;2022-12-08T04:30:49;15.10;;;11.10;;
20743;SDS011;56303;52.160;-0.428;2022-12-08T04:33:16;13.00;;;11.23;;
20743;SDS011;56303;52.160;-0.428;2022-12-08T04:35:43;15.30;;;11.13;;
20743;SDS011;56303;52.160;-0.428;2022-12-08T04:38:10;17.53;;;11.00;;
20743;SDS011;56303;52.160;-0.428;2022-12-08T04:40:37;19.00;;;13.77;;
20743;SDS011;56303;52.160;-0.428;2022-12-08T04:43:03;13.73;;;10.53;;
20743;SDS011;56303;52.160;-0.428;2022-12-08T04:45:31;15.40;;;10.97;;
20743;SDS011;56303;52.160;-0.428;2022-12-08T04:47:58;16.23;;;11.73;;
20743;SDS011;56303;52.160;-0.428;2022-12-08T04:50:26;16.83;;;12.13;;
20743;SDS011;56303;52.160;-0.428;2022-12-08T04:52:53;15.80;;;11.53;;
20743;SDS011;56303;52.160;-0.428;2022-12-08T04:55:20;17.50;;;11.50;;
20743;SDS011;56303;52.160;-0.428;2022-12-08T04:57:47;16.90;;;10.87;;
20743;SDS011;56303;52.160;-0.428;2022-12-08T05:00:14;13.67;;;10.50;;
20743;SDS011;56303;52.160;-0.428;2022-12-08T05:02:41;14.03;;;11.67;;
20743;SDS011;56303;52.160;-0.428;2022-12-08T05:05:08;14.97;;;11.50;;
20743;SDS011;56303;52.160;-0.428;2022-12-08T05:07:35;12.50;;;9.93;;
20743;SDS011;56303;52.160;-0.428;2022-12-08T05:10:03;13.53;;;11.70;;
20743;SDS011;56303;52.160;-0.428;2022-12-08T05:12:31;19.50;;;12.67;;
20743;SDS011;56303;52.160;-0.428;2022-12-08T05:14:58;16.10;;;11.73;;
20743;SDS011;56303;52.160;-0.428;2022-12-08T05:17:25;17.27;;;12.47;;
20743;SDS011;56303;52.160;-0.428;2022-12-08T05:19:51;14.47;;;10.93;;
20743;SDS011;56303;52.160;-0.428;2022-12-08T05:22:19;14.73;;;12.30;;
20743;SDS011;56303;52.160;-0.428;2022-12-08T05:24:45;16.63;;;12.20;;
20743;SDS011;56303;52.160;-0.428;2022-12-08T05:27:13;15.47;;;12.33;;
20743;SDS011;56303;52.160;-0.428;2022-12-08T05:29:40;18.20;;;12.73;;
20743;SDS011;56303;52.160;-0.428;2022-12-08T05:32:07;13.80;;;10.43;;
20743;SDS011;56303;52.160;-0.428;2022-12-08T05:34:34;20.23;;;12.63;;
20743;SDS011;56303;52.160;-0.428;2022-12-08T05:37:01;17.27;;;11.83;;
20743;SDS011;56303;52.160;-0.428;2022-12-08T05:39:28;14.70;;;11.43;;
20743;SDS011;56303;52.160;-0.428;2022-12-08T05:41:54;13.37;;;11.60;;
20743;SDS011;56303;52.160;-0.428;2022-12-08T05:44:21;16.07;;;12.10;;
20743;SDS011;56303;52.160;-0.428;2022-12-08T05:46:48;13.53;;;11.03;;
20743;SDS011;56303;52.160;-0.428;2022-12-08T05:49:15;17.70;;;12.37;;
20743;SDS011;56303;52.160;-0.428;2022-12-08T05:51:42;18.20;;;13.00;;
20743;SDS011;56303;52.160;-0.428;2022-12-08T05:54:09;15.70;;;12.60;;
20743;SDS011;56303;52.160;-0.428;2022-12-08T05:56:36;16.73;;;12.53;;
20743;SDS011;56303;52.160;-0.428;2022-12-08T05:59:05;17.40;;;12.97;;
20743;SDS011;56303;52.160;-0.428;2022-12-08T06:01:32;17.37;;;12.83;;
20743;SDS011;56303;52.160;-0.428;2022-12-08T06:04:00;16.77;;;13.17;;
20743;SDS011;56303;52.160;-0.428;2022-12-08T06:06:28;24.00;;;20.50;;
20743;SDS011;56303;52.160;-0.428;2022-12-08T06:08:56;14.00;;;12.50;;
20743;SDS011;56303;52.160;-0.428;2022-12-08T06:11:24;17.93;;;12.93;;
20743;SDS011;56303;52.160;-0.428;2022-12-08T06:13:53;16.00;;;12.63;;
20743;SDS011;56303;52.160;-0.428;2022-12-08T06:16:21;13.63;;;12.10;;
20743;SDS011;56303;52.160;-0.428;2022-12-08T06:18:49;14.47;;;11.67;;
20743;SDS011;56303;52.160;-0.428;2022-12-08T06:21:16;13.50;;;11.43;;
20743;SDS011;56303;52.160;-0.428;2022-12-08T06:23:46;13.50;;;11.47;;
20743;SDS011;56303;52.160;-0.428;2022-12-08T06:26:15;16.53;;;12.23;;
20743;SDS011;56303;52.160;-0.428;2022-12-08T06:28:42;14.60;;;12.33;;
20743;SDS011;56303;52.160;-0.428;2022-12-08T06:31:10;14.37;;;11.73;;
20743;SDS011;56303;52.160;-0.428;2022-12-08T06:33:39;14.50;;;12.97;;
20743;SDS011;56303;52.160;-0.428;2022-12-08T06:36:07;15.33;;;12.27;;
20743;SDS011;56303;52.160;-0.428;2022-12-08T06:38:36;14.73;;;12.07;;
20743;SDS011;56303;52.160;-0.428;2022-12-08T06:41:08;15.57;;;12.40;;
20743;SDS011;56303;52.160;-0.428;2022-12-08T06:43:35;15.80;;;13.03;;
20743;SDS011;56303;52.160;-0.428;2022-12-08T06:46:04;15.30;;;12.50;;
20743;SDS011;56303;52.160;-0.428;2022-12-08T06:48:33;17.93;;;12.30;;
20743;SDS011;56303;52.160;-0.428;2022-12-08T06:51:10;18.67;;;12.20;;
20743;SDS011;56303;52.160;-0.428;2022-12-08T06:53:40;18.47;;;12.77;;
20743;SDS011;56303;52.160;-0.428;2022-12-08T06:56:09;12.93;;;11.47;;
20743;SDS011;56303;52.160;-0.428;2022-12-08T06:58:37;16.40;;;12.13;;
20743;SDS011;56303;52.160;-0.428;2022-12-08T07:01:05;16.30;;;12.93;;
20743;SDS011;56303;52.160;-0.428;2022-12-08T07:03:33;18.87;;;13.40;;
20743;SDS011;56303;52.160;-0.428;2022-12-08T07:06:00;18.03;;;13.17;;
20743;SDS011;56303;52.160;-0.428;2022-12-08T07:08:30;15.73;;;13.30;;
20743;SDS011;56303;52.160;-0.428;2022-12-08T07:10:57;17.83;;;13.13;;
20743;SDS011;56303;52.160;-0.428;2022-12-08T07:13:24;17.37;;;13.07;;
20743;SDS011;56303;52.160;-0.428;2022-12-08T07:15:51;16.33;;;12.20;;
20743;SDS011;56303;52.160;-0.428;2022-12-08T07:18:18;18.77;;;12.80;;
20743;SDS011;56303;52.160;-0.428;2022-12-08T07:20:45;14.80;;;12.23;;
20743;SDS011;56303;52.160;-0.428;2022-12-08T07:23:11;15.33;;;12.37;;
20743;SDS011;56303;52.160;-0.428;2022-12-08T07:25:38;17.27;;;13.43;;
20743;SDS011;56303;52.160;-0.428;2022-12-08T07:28:09;14.20;;;12.47;;
20743;SDS011;56303;52.160;-0.428;2022-12-08T07:30:37;18.23;;;14.00;;
20743;SDS011;56303;52.160;-0.428;2022-12-08T07:33:04;16.20;;;12.43;;
20743;SDS011;56303;52.160;-0.428;2022-12-08T07:35:31;17.07;;;13.40;;
20743;SDS011;56303;52.160;-0.428;2022-12-08T07:38:00;19.00;;;13.43;;
20743;SDS011;56303;52.160;-0.428;2022-12-08T07:40:27;18.37;;;14.00;;
20743;SDS011;56303;52.160;-0.428;2022-12-08T07:42:54;18.03;;;15.13;;
20743;SDS011;56303;52.160;-0.428;2022-12-08T07:45:21;20.73;;;15.20;;
20743;SDS011;56303;52.160;-0.428;2022-12-08T07:47:56;17.20;;;13.40;;
20743;SDS011;56303;52.160;-0.428;2022-12-08T07:50:23;17.07;;;13.90;;
20743;SDS011;56303;52.160;-0.428;2022-12-08T07:52:50;18.80;;;13.80;;
20743;SDS011;56303;52.160;-0.428;2022-12-08T07:55:17;18.57;;;14.50;;
20743;SDS011;56303;52.160;-0.428;2022-12-08T07:57:43;17.17;;;13.47;;
20743;SDS011;56303;52.160;-0.428;2022-12-08T08:00:10;19.20;;;15.37;;
20743;SDS011;56303;52.160;-0.428;2022-12-08T08:02:38;17.00;;;14.10;;
20743;SDS011;56303;52.160;-0.428;2022-12-08T08:05:05;18.07;;;13.57;;
20743;SDS011;56303;52.160;-0.428;2022-12-08T08:07:33;17.37;;;13.93;;
20743;SDS011;56303;52.160;-0.428;2022-12-08T08:09:59;19.07;;;13.73;;
20743;SDS011;56303;52.160;-0.428;2022-12-08T08:12:27;18.93;;;14.23;;
20743;SDS011;56303;52.160;-0.428;2022-12-08T08:14:57;20.93;;;14.27;;
20743;SDS011;56303;52.160;-0.428;2022-12-08T08:17:28;16.50;;;13.70;;
20743;SDS011;56303;52.160;-0.428;2022-12-08T08:19:55;18.90;;;13.50;;
20743;SDS011;56303;52.160;-0.428;2022-12-08T08:22:23;16.27;;;12.73;;
20743;SDS011;56303;52.160;-0.428;2022-12-08T08:24:51;15.90;;;13.30;;
20743;SDS011;56303;52.160;-0.428;2022-12-08T08:27:18;17.17;;;13.23;;
20743;SDS011;56303;52.160;-0.428;2022-12-08T08:29:46;15.93;;;13.87;;
20743;SDS011;56303;52.160;-0.428;2022-12-08T08:32:12;17.87;;;14.00;;
20743;SDS011;56303;52.160;-0.428;2022-12-08T08:34:39;17.07;;;14.83;;
20743;SDS011;56303;52.160;-0.428;2022-12-08T08:37:06;16.03;;;14.23;;
20743;SDS011;56303;52.160;-0.428;2022-12-08T08:39:33;17.37;;;14.27;;
20743;SDS011;56303;52.160;-0.428;2022-12-08T08:42:00;19.93;;;14.50;;
20743;SDS011;56303;52.160;-0.428;2022-12-08T08:44:27;18.67;;;14.97;;
20743;SDS011;56303;52.160;-0.428;2022-12-08T08:46:54;17.97;;;14.53;;
20743;SDS011;56303;52.160;-0.428;2022-12-08T08:49:20;17.50;;;15.60;;
20743;SDS011;56303;52.160;-0.428;2022-12-08T08:51:47;20.47;;;15.07;;
20743;SDS011;56303;52.160;-0.428;2022-12-08T08:54:14;18.90;;;14.03;;
20743;SDS011;56303;52.160;-0.428;2022-12-08T08:56:41;17.90;;;13.87;;
20743;SDS011;56303;52.160;-0.428;2022-12-08T08:59:08;18.13;;;14.80;;
20743;SDS011;56303;52.160;-0.428;2022-12-08T09:01:36;19.07;;;14.17;;
20743;SDS011;56303;52.160;-0.428;2022-12-08T09:04:03;17.03;;;12.97;;
20743;SDS011;56303;52.160;-0.428;2022-12-08T09:06:30;16.40;;;14.07;;
20743;SDS011;56303;52.160;-0.428;2022-12-08T09:08:57;14.07;;;12.20;;
20743;SDS011;56303;52.160;-0.428;2022-12-08T09:11:24;15.07;;;12.47;;
20743;SDS011;56303;52.160;-0.428;2022-12-08T09:13:51;17.80;;;13.30;;
20743;SDS011;56303;52.160;-0.428;2022-12-08T09:16:20;16.80;;;12.93;;
20743;SDS011;56303;52.160;-0.428;2022-12-08T09:18:47;14.83;;;11.00;;
20743;SDS011;56303;52.160;-0.428;2022-12-08T09:21:16;17.20;;;13.30;;
20743;SDS011;56303;52.160;-0.428;2022-12-08T09:23:48;16.27;;;13.80;;
20743;SDS011;56303;52.160;-0.428;2022-12-08T09:26:16;16.70;;;13.60;;
20743;SDS011;56303;52.160;-0.428;2022-12-08T09:28:43;16.30;;;13.87;;
20743;SDS011;56303;52.160;-0.428;2022-12-08T09:31:12;13.87;;;10.83;;
20743;SDS011;56303;52.160;-0.428;2022-12-08T09:33:39;12.90;;;11.13;;
20743;SDS011;56303;52.160;-0.428;2022-12-08T09:36:07;17.07;;;12.97;;
20743;SDS011;56303;52.160;-0.428;2022-12-08T09:38:35;15.40;;;12.40;;
20743;SDS011;56303;52.160;-0.428;2022-12-08T09:41:03;16.43;;;13.63;;
20743;SDS011;56303;52.160;-0.428;2022-12-08T09:43:44;14.33;;;11.90;;
20743;SDS011;56303;52.160;-0.428;2022-12-08T09:46:31;14.33;;;11.23;;
20743;SDS011;56303;52.160;-0.428;2022-12-08T09:48:59;14.27;;;11.20;;
20743;SDS011;56303;52.160;-0.428;2022-12-08T09:51:35;13.03;;;11.00;;
20743;SDS011;56303;52.160;-0.428;2022-12-08T09:54:06;12.00;;;9.50;;
20743;SDS011;56303;52.160;-0.428;2022-12-08T09:56:43;11.83;;;9.20;;
20743;SDS011;56303;52.160;-0.428;2022-12-08T10:02:27;12.33;;;8.80;;
20743;SDS011;56303;52.160;-0.428;2022-12-08T10:04:56;14.17;;;9.33;;
20743;SDS011;56303;52.160;-0.428;2022-12-08T10:07:26;11.87;;;8.80;;
20743;SDS011;56303;52.160;-0.428;2022-12-08T10:18:14;11.73;;;8.87;;
20743;SDS011;56303;52.160;-0.428;2022-12-08T10:20:44;11.93;;;8.53;;
20743;SDS011;56303;52.160;-0.428;2022-12-08T10:23:24;12.77;;;9.43;;
20743;SDS011;56303;52.160;-0.428;2022-12-08T10:25:59;10.87;;;8.87;;
20743;SDS011;56303;52.160;-0.428;2022-12-08T10:28:28;13.10;;;9.70;;
20743;SDS011;56303;52.160;-0.428;2022-12-08T10:30:56;16.17;;;10.47;;
20743;SDS011;56303;52.160;-0.428;2022-12-08T10:33:23;13.37;;;8.83;;
20743;SDS011;56303;52.160;-0.428;2022-12-08T10:35:54;11.27;;;8.40;;
20743;SDS011;56303;52.160;-0.428;2022-12-08T10:38:29;11.53;;;8.57;;
20743;SDS011;56303;52.160;-0.428;2022-12-08T10:43:43;9.50;;;7.97;;
20743;SDS011;56303;52.160;-0.428;2022-12-08T10:46:13;13.00;;;7.80;;
20743;SDS011;56303;52.160;-0.428;2022-12-08T10:48:51;11.33;;;8.00;;
20743;SDS011;56303;52.160;-0.428;2022-12-08T10:51:30;9.00;;;7.37;;
20743;SDS011;56303;52.160;-0.428;2022-12-08T10:54:13;8.67;;;7.07;;
20743;SDS011;56303;52.160;-0.428;2022-12-08T10:56:57;10.60;;;8.33;;
20743;SDS011;56303;52.160;-0.428;2022-12-08T10:59:25;10.23;;;7.80;;
20743;SDS011;56303;52.160;-0.428;2022-12-08T11:01:58;10.13;;;7.73;;
20743;SDS011;56303;52.160;-0.428;2022-12-08T11:07:04;10.93;;;7.57;;
20743;SDS011;56303;52.160;-0.428;2022-12-08T11:12:15;9.60;;;7.30;;
20743;SDS011;56303;52.160;-0.428;2022-12-08T11:17:11;11.60;;;7.90;;
20743;SDS011;56303;52.160;-0.428;2022-12-08T11:22:39;12.23;;;6.63;;
20743;SDS011;56303;52.160;-0.428;2022-12-08T11:27:55;10.93;;;7.07;;
20743;SDS011;56303;52.160;-0.428;2022-12-08T11:30:28;9.80;;;7.37;;
20743;SDS011;56303;52.160;-0.428;2022-12-08T11:35:37;10.03;;;6.47;;
20743;SDS011;56303;52.160;-0.428;2022-12-08T11:40:47;9.73;;;6.97;;
20743;SDS011;56303;52.160;-0.428;2022-12-08T11:45:44;7.83;;;6.00;;
20743;SDS011;56303;52.160;-0.428;2022-12-08T11:48:16;9.93;;;6.67;;
20743;SDS011;56303;52.160;-0.428;2022-12-08T11:53:21;10.33;;;6.80;;
20743;SDS011;56303;52.160;-0.428;2022-12-08T12:02:13;8.10;;;6.07;;
20743;SDS011;56303;52.160;-0.428;2022-12-08T12:04:46;11.00;;;6.17;;
20743;SDS011;56303;52.160;-0.428;2022-12-08T12:07:32;11.00;;;6.60;;
20743;SDS011;56303;52.160;-0.428;2022-12-08T12:16:25;11.03;;;6.33;;
20743;SDS011;56303;52.160;-0.428;2022-12-08T12:19:09;9.37;;;6.07;;
20743;SDS011;56303;52.160;-0.428;2022-12-08T12:21:41;7.17;;;5.20;;
20743;SDS011;56303;52.160;-0.428;2022-12-08T12:24:15;8.43;;;5.27;;
20743;SDS011;56303;52.160;-0.428;2022-12-08T12:27:19;8.23;;;5.57;;
20743;SDS011;56303;52.160;-0.428;2022-12-08T12:29:54;7.93;;;5.07;;
20743;SDS011;56303;52.160;-0.428;2022-12-08T12:32:26;6.63;;;5.07;;
20743;SDS011;56303;52.160;-0.428;2022-12-08T12:35:05;6.90;;;4.63;;
20743;SDS011;56303;52.160;-0.428;2022-12-08T12:37:43;7.73;;;4.67;;
20743;SDS011;56303;52.160;-0.428;2022-12-08T12:40:19;8.80;;;4.93;;
20743;SDS011;56303;52.160;-0.428;2022-12-08T12:45:41;7.27;;;4.83;;
20743;SDS011;56303;52.160;-0.428;2022-12-08T12:48:19;7.70;;;4.93;;
20743;SDS011;56303;52.160;-0.428;2022-12-08T12:50:51;7.73;;;4.23;;
20743;SDS011;56303;52.160;-0.428;2022-12-08T12:55:59;17.07;;;9.53;;
20743;SDS011;56303;52.160;-0.428;2022-12-08T13:06:11;4.73;;;3.87;;
20743;SDS011;56303;52.160;-0.428;2022-12-08T13:08:49;6.03;;;3.50;;
20743;SDS011;56303;52.160;-0.428;2022-12-08T13:11:19;6.90;;;4.67;;
20743;SDS011;56303;52.160;-0.428;2022-12-08T13:13:57;7.47;;;4.23;;
20743;SDS011;56303;52.160;-0.428;2022-12-08T13:16:38;8.27;;;5.03;;
20743;SDS011;56303;52.160;-0.428;2022-12-08T13:19:11;6.53;;;4.37;;
20743;SDS011;56303;52.160;-0.428;2022-12-08T13:21:39;6.43;;;3.77;;
20743;SDS011;56303;52.160;-0.428;2022-12-08T13:26:46;6.70;;;3.80;;
20743;SDS011;56303;52.160;-0.428;2022-12-08T13:29:36;9.47;;;4.30;;
20743;SDS011;56303;52.160;-0.428;2022-12-08T13:34:39;7.80;;;4.33;;
20743;SDS011;56303;52.160;-0.428;2022-12-08T13:39:42;8.77;;;4.73;;
20743;SDS011;56303;52.160;-0.428;2022-12-08T13:42:18;7.93;;;5.30;;
20743;SDS011;56303;52.160;-0.428;2022-12-08T13:44:56;7.67;;;4.20;;
20743;SDS011;56303;52.160;-0.428;2022-12-08T13:47:59;8.30;;;4.57;;
20743;SDS011;56303;52.160;-0.428;2022-12-08T13:54:03;9.00;;;4.77;;
20743;SDS011;56303;52.160;-0.428;2022-12-08T13:57:25;7.17;;;4.03;;
20743;SDS011;56303;52.160;-0.428;2022-12-08T14:00:06;6.83;;;3.37;;
20743;SDS011;56303;52.160;-0.428;2022-12-08T14:02:44;8.07;;;4.07;;
20743;SDS011;56303;52.160;-0.428;2022-12-08T14:05:15;7.53;;;3.73;;
20743;SDS011;56303;52.160;-0.428;2022-12-08T14:07:47;7.07;;;3.73;;
20743;SDS011;56303;52.160;-0.428;2022-12-08T14:10:17;7.63;;;4.43;;
20743;SDS011;56303;52.160;-0.428;2022-12-08T14:12:47;4.97;;;3.30;;
20743;SDS011;56303;52.160;-0.428;2022-12-08T14:15:21;7.70;;;4.10;;
20743;SDS011;56303;52.160;-0.428;2022-12-08T14:17:51;4.80;;;3.50;;
20743;SDS011;56303;52.160;-0.428;2022-12-08T14:20:29;6.53;;;3.60;;
20743;SDS011;56303;52.160;-0.428;2022-12-08T14:23:18;7.27;;;3.57;;
20743;SDS011;56303;52.160;-0.428;2022-12-08T14:25:45;7.27;;;3.30;;
20743;SDS011;56303;52.160;-0.428;2022-12-08T14:28:13;9.70;;;3.43;;
20743;SDS011;56303;52.160;-0.428;2022-12-08T14:30:40;6.17;;;3.40;;
20743;SDS011;56303;52.160;-0.428;2022-12-08T14:33:10;7.60;;;3.40;;
20743;SDS011;56303;52.160;-0.428;2022-12-08T14:35:39;6.83;;;2.83;;
20743;SDS011;56303;52.160;-0.428;2022-12-08T14:38:13;5.27;;;3.23;;
20743;SDS011;56303;52.160;-0.428;2022-12-08T14:43:14;7.60;;;3.90;;
20743;SDS011;56303;52.160;-0.428;2022-12-08T14:48:23;8.53;;;3.93;;
20743;SDS011;56303;52.160;-0.428;2022-12-08T14:53:34;5.20;;;2.73;;
20743;SDS011;56303;52.160;-0.428;2022-12-08T14:59:00;6.77;;;3.63;;
20743;SDS011;56303;52.160;-0.428;2022-12-08T15:01:42;6.20;;;4.00;;
20743;SDS011;56303;52.160;-0.428;2022-12-08T15:09:24;8.00;;;4.17;;
20743;SDS011;56303;52.160;-0.428;2022-12-08T15:12:04;10.83;;;4.80;;
20743;SDS011;56303;52.160;-0.428;2022-12-08T15:14:41;13.73;;;4.93;;
20743;SDS011;56303;52.160;-0.428;2022-12-08T15:20:25;8.83;;;4.50;;
20743;SDS011;56303;52.160;-0.428;2022-12-08T15:23:00;9.00;;;4.13;;
20743;SDS011;56303;52.160;-0.428;2022-12-08T15:25:28;8.17;;;3.80;;
20743;SDS011;56303;52.160;-0.428;2022-12-08T15:27:56;7.10;;;4.17;;
20743;SDS011;56303;52.160;-0.428;2022-12-08T15:30:23;9.30;;;4.40;;
20743;SDS011;56303;52.160;-0.428;2022-12-08T15:32:53;7.33;;;4.23;;
20743;SDS011;56303;52.160;-0.428;2022-12-08T15:35:21;9.90;;;4.50;;
20743;SDS011;56303;52.160;-0.428;2022-12-08T15:37:48;9.00;;;4.27;;
20743;SDS011;56303;52.160;-0.428;2022-12-08T15:40:18;8.80;;;4.03;;
20743;SDS011;56303;52.160;-0.428;2022-12-08T15:42:48;7.80;;;3.90;;
20743;SDS011;56303;52.160;-0.428;2022-12-08T15:45:15;6.93;;;4.10;;
20743;SDS011;56303;52.160;-0.428;2022-12-08T15:47:43;7.47;;;3.90;;
20743;SDS011;56303;52.160;-0.428;2022-12-08T15:50:17;6.67;;;4.20;;
20743;SDS011;56303;52.160;-0.428;2022-12-08T15:52:46;11.23;;;4.30;;
20743;SDS011;56303;52.160;-0.428;2022-12-08T15:55:14;7.83;;;4.13;;
20743;SDS011;56303;52.160;-0.428;2022-12-08T15:57:44;7.17;;;4.40;;
20743;SDS011;56303;52.160;-0.428;2022-12-08T16:00:34;8.13;;;4.23;;
20743;SDS011;56303;52.160;-0.428;2022-12-08T16:03:26;9.93;;;5.13;;
20743;SDS011;56303;52.160;-0.428;2022-12-08T16:06:16;10.73;;;4.67;;
20743;SDS011;56303;52.160;-0.428;2022-12-08T16:09:04;10.07;;;4.93;;
20743;SDS011;56303;52.160;-0.428;2022-12-08T16:11:38;8.30;;;5.50;;
20743;SDS011;56303;52.160;-0.428;2022-12-08T16:14:33;14.17;;;7.53;;
20743;SDS011;56303;52.160;-0.428;2022-12-08T16:17:20;9.47;;;4.60;;
20743;SDS011;56303;52.160;-0.428;2022-12-08T16:19:47;6.87;;;4.03;;
20743;SDS011;56303;52.160;-0.428;2022-12-08T16:22:19;10.97;;;5.00;;
20743;SDS011;56303;52.160;-0.428;2022-12-08T16:25:07;11.57;;;6.27;;
20743;SDS011;56303;52.160;-0.428;2022-12-08T16:27:44;9.60;;;4.90;;
20743;SDS011;56303;52.160;-0.428;2022-12-08T16:30:31;9.53;;;5.30;;
20743;SDS011;56303;52.160;-0.428;2022-12-08T16:32:58;8.93;;;4.73;;
20743;SDS011;56303;52.160;-0.428;2022-12-08T16:35:26;10.20;;;5.07;;
20743;SDS011;56303;52.160;-0.428;2022-12-08T16:37:52;17.03;;;7.87;;
20743;SDS011;56303;52.160;-0.428;2022-12-08T16:40:19;44.33;;;16.67;;
20743;SDS011;56303;52.160;-0.428;2022-12-08T16:42:46;41.23;;;15.43;;
20743;SDS011;56303;52.160;-0.428;2022-12-08T16:47:45;43.17;;;17.63;;
20743;SDS011;56303;52.160;-0.428;2022-12-08T16:50:15;25.63;;;11.07;;
20743;SDS011;56303;52.160;-0.428;2022-12-08T16:52:44;11.63;;;6.20;;
20743;SDS011;56303;52.160;-0.428;2022-12-08T16:55:16;8.23;;;4.70;;